createdAt,value
2023-01-10T00:01:37.679Z,82.25
2023-01-10T00:06:38.819Z,82.18
2023-01-10T00:11:39.945Z,84.05
2023-01-10T00:16:41.084Z,85.42
2023-01-10T00:21:44.369Z,86.42
2023-01-10T00:26:44.534Z,86.67
2023-01-10T00:31:43.763Z,85.74
2023-01-10T00:36:44.903Z,84.39
2023-01-10T00:41:46.071Z,82.18
2023-01-10T00:46:47.214Z,81.87
2023-01-10T00:51:49.387Z,81.98
2023-01-10T00:56:48.557Z,82.50
2023-01-10T01:01:51.863Z,81.01
2023-01-10T01:06:51.070Z,81.11
2023-01-10T01:11:52.264Z,79.52
2023-01-10T01:16:54.414Z,79.94
2023-01-10T01:21:53.562Z,80.70
2023-01-10T01:26:54.723Z,79.46
2023-01-10T01:31:56.144Z,79.52
2023-01-10T01:36:55.387Z,79.56
2023-01-10T01:41:57.500Z,79.63
2023-01-10T01:46:56.625Z,79.22
2023-01-10T01:51:57.733Z,78.91
2023-01-10T01:56:58.835Z,79.42
2023-01-10T02:02:01.031Z,79.22
2023-01-10T02:07:00.186Z,79.94
2023-01-10T02:12:01.324Z,81.07
2023-01-10T02:17:02.487Z,83.80
2023-01-10T02:22:03.657Z,85.70
2023-01-10T02:27:04.817Z,86.67
2023-01-10T02:32:05.975Z,86.77
2023-01-10T02:37:07.114Z,87.18
2023-01-10T02:42:08.236Z,87.60
2023-01-10T02:47:09.430Z,86.46
2023-01-10T02:52:10.563Z,86.67
2023-01-10T02:57:11.745Z,87.70
2023-01-10T03:02:12.932Z,88.84
2023-01-10T03:07:14.099Z,89.77
2023-01-10T03:12:15.220Z,89.56
2023-01-10T03:17:16.329Z,87.81
2023-01-10T03:22:17.428Z,86.88
2023-01-10T03:27:19.570Z,86.11
2023-01-10T03:32:19.748Z,86.94
2023-01-10T03:37:18.855Z,87.91
2023-01-10T03:42:20.982Z,87.81
2023-01-10T03:47:20.144Z,88.67
2023-01-10T03:52:21.350Z,86.09
2023-01-10T03:57:22.493Z,88.36
2023-01-10T04:02:23.610Z,88.06
2023-01-10T04:07:24.713Z,86.29
2023-01-10T04:12:25.882Z,86.09
2023-01-10T04:17:27.028Z,86.91
2023-01-10T04:22:28.250Z,89.44
2023-01-10T04:27:29.408Z,87.72
2023-01-10T04:32:31.509Z,88.86
2023-01-10T04:37:31.665Z,87.20
2023-01-10T04:42:30.858Z,86.89
2023-01-10T04:47:31.994Z,84.72
2023-01-10T04:52:33.137Z,89.13
2023-01-10T04:57:34.287Z,85.19
2023-01-10T05:02:36.508Z,86.54
2023-01-10T05:07:36.680Z,83.12
2023-01-10T05:12:36.911Z,87.02
2023-01-10T05:17:36.054Z,80.81
2023-01-10T05:22:37.252Z,80.05
2023-01-10T05:27:38.432Z,81.70
2023-01-10T05:32:39.612Z,79.67
2023-01-10T05:37:40.815Z,80.26
2023-01-10T05:42:42.974Z,79.12
2023-01-10T05:47:42.116Z,78.91
2023-01-10T05:52:43.305Z,77.47
2023-01-10T05:57:44.502Z,80.36
2023-01-10T06:02:45.781Z,79.74
2023-01-10T06:07:46.969Z,79.02
2023-01-10T06:12:49.104Z,80.57
2023-01-10T06:17:49.234Z,78.29
2023-01-10T06:22:48.367Z,78.08
2023-01-10T06:27:49.509Z,77.56
2023-01-10T06:32:51.054Z,77.05
2023-01-10T06:37:50.177Z,77.36
2023-01-10T06:42:51.308Z,76.53
2023-01-10T06:47:52.416Z,76.91
2023-01-10T06:52:53.872Z,76.50
2023-01-10T06:57:55.037Z,76.18
2023-01-10T07:02:56.202Z,76.39
2023-01-10T07:07:57.350Z,77.84
2023-01-10T07:12:58.503Z,76.74
2023-01-10T07:17:59.666Z,77.67
2023-01-10T07:23:00.853Z,76.12
2023-01-10T07:28:01.979Z,76.53
2023-01-10T07:33:03.086Z,76.84
2023-01-10T07:38:04.202Z,77.05
2023-01-10T07:43:06.330Z,76.95
2023-01-10T07:48:05.414Z,77.19
2023-01-10T07:53:07.572Z,77.91
2023-01-10T07:58:06.766Z,76.26
2023-01-10T08:03:09.911Z,76.43
2023-01-10T08:08:09.072Z,76.74
2023-01-10T08:13:18.916Z,76.84
2023-01-10T08:18:11.230Z,77.05
2023-01-10T08:23:12.416Z,75.67
2023-01-10T08:28:14.528Z,75.57
2023-01-10T08:33:13.658Z,77.53
2023-01-10T08:38:15.871Z,78.29
2023-01-10T08:43:15.015Z,77.94
2023-01-10T08:48:15.099Z,76.91
2023-01-10T08:53:16.233Z,75.36
2023-01-10T08:58:17.382Z,76.81
2023-01-10T09:03:18.592Z,76.36
2023-01-10T09:08:19.730Z,75.74
2023-01-10T09:13:20.863Z,74.81
2023-01-10T09:18:22.000Z,74.15
2023-01-10T09:23:23.176Z,74.98
2023-01-10T09:28:25.343Z,75.09
2023-01-10T09:33:25.318Z,74.63
2023-01-10T09:38:26.550Z,74.08
2023-01-10T09:43:25.723Z,74.33
2023-01-10T09:48:26.852Z,71.20
2023-01-10T09:53:27.981Z,73.09
2023-01-10T09:58:30.091Z,72.44
2023-01-10T10:03:29.311Z,72.40
2023-01-10T10:08:32.535Z,73.40
2023-01-10T10:13:31.630Z,73.95
2023-01-10T10:18:32.767Z,75.12
2023-01-10T10:23:34.547Z,71.37
2023-01-10T10:28:34.459Z,73.88
2023-01-10T10:33:34.820Z,72.58
2023-01-10T10:38:36.045Z,71.44
2023-01-10T10:43:37.247Z,72.06
2023-01-10T10:48:38.446Z,70.00
2023-01-10T10:53:39.595Z,70.28
2023-01-10T10:58:40.758Z,69.27
2023-01-10T11:03:41.904Z,69.48
2023-01-10T11:08:43.048Z,68.66
2023-01-10T11:13:45.233Z,68.17
2023-01-10T11:18:45.393Z,69.00
2023-01-10T11:23:44.526Z,69.75
2023-01-10T11:28:45.643Z,71.26
2023-01-10T11:33:46.766Z,72.19
2023-01-10T11:38:48.859Z,69.89
2023-01-10T11:43:48.015Z,68.04
2023-01-10T11:49:07.203Z,69.01
2023-01-10T11:53:49.162Z,68.12
2023-01-10T11:58:50.387Z,67.03
2023-01-10T12:03:51.504Z,63.97
2023-01-10T12:08:53.679Z,64.18
2023-01-10T12:13:52.782Z,63.75
2023-01-10T12:18:59.921Z,60.05
2023-01-10T12:23:57.074Z,60.01
2023-01-10T12:28:58.590Z,59.44
2023-01-10T12:33:56.947Z,58.49
2023-01-10T12:38:56.049Z,54.85
2023-01-10T12:43:57.154Z,56.10
2023-01-10T12:49:02.221Z,55.59
2023-01-10T12:54:00.451Z,58.28
2023-01-10T12:58:59.666Z,56.90
2023-01-10T13:04:01.112Z,56.59
2023-01-10T13:09:00.256Z,57.72
2023-01-10T13:14:01.374Z,56.98
2023-01-10T13:19:02.523Z,54.64
2023-01-10T13:24:03.694Z,57.03
2023-01-10T13:29:05.852Z,58.08
2023-01-10T13:34:05.283Z,58.62
2023-01-10T13:39:06.437Z,58.11
2023-01-10T13:44:07.663Z,59.58
2023-01-10T13:49:09.820Z,60.30
2023-01-10T13:54:09.959Z,60.02
2023-01-10T13:59:09.126Z,62.10
2023-01-10T14:04:10.302Z,60.77
2023-01-10T14:09:11.457Z,61.72
2023-01-10T14:14:12.615Z,59.25
2023-01-10T14:19:13.863Z,61.52
2023-01-10T14:24:15.997Z,61.41
2023-01-10T14:29:16.145Z,62.68
2023-01-10T14:34:16.241Z,63.71
2023-01-10T14:39:15.360Z,65.67
2023-01-10T14:44:17.493Z,66.60
2023-01-10T14:49:17.619Z,66.52
2023-01-10T14:54:16.720Z,68.17
2023-01-10T14:59:18.819Z,67.14
2023-01-10T15:04:18.957Z,67.90
2023-01-10T15:09:18.123Z,67.35
2023-01-10T15:14:19.294Z,67.17
2023-01-10T15:19:20.420Z,67.90
2023-01-10T15:24:20.555Z,68.65
2023-01-10T15:29:21.682Z,70.20
2023-01-10T15:34:22.769Z,68.96
2023-01-10T15:39:24.930Z,70.54
2023-01-10T15:44:24.046Z,71.71
2023-01-10T15:49:25.153Z,71.50
2023-01-10T15:54:26.339Z,71.53
2023-01-10T15:59:27.564Z,72.05
2023-01-10T16:04:28.852Z,71.74
2023-01-10T16:09:30.060Z,72.19
2023-01-10T16:14:31.266Z,73.02
2023-01-10T16:19:32.374Z,73.88
2023-01-10T16:24:33.571Z,73.46
2023-01-10T16:29:34.746Z,74.53
2023-01-10T16:34:35.947Z,75.05
2023-01-10T16:39:38.125Z,75.46
2023-01-10T16:44:37.286Z,75.98
2023-01-10T16:49:38.384Z,76.32
2023-01-10T16:54:39.542Z,75.95
2023-01-10T16:59:40.690Z,75.74
2023-01-10T17:04:41.836Z,75.95
2023-01-10T17:09:42.987Z,75.32
2023-01-10T17:14:44.112Z,74.71
2023-01-10T17:19:45.319Z,74.50
2023-01-10T17:24:46.473Z,74.40
2023-01-10T17:29:47.608Z,74.50
2023-01-10T17:34:48.835Z,73.15
2023-01-10T17:39:49.993Z,72.88
2023-01-10T17:44:51.292Z,72.01
2023-01-10T17:49:52.502Z,71.80
2023-01-10T17:54:54.620Z,70.67
2023-01-10T17:59:54.738Z,70.67
2023-01-10T18:04:53.884Z,70.25
2023-01-10T18:09:55.101Z,69.84
2023-01-10T18:14:56.244Z,69.11
2023-01-10T18:19:57.527Z,69.01
2023-01-10T18:24:58.669Z,67.94
2023-01-10T18:30:00.784Z,66.49
2023-01-10T18:35:02.142Z,65.35
2023-01-10T18:40:01.281Z,65.45
2023-01-10T18:45:02.411Z,66.08
2023-01-10T18:50:04.524Z,65.42
2023-01-10T18:55:03.705Z,65.42
2023-01-10T19:00:04.822Z,65.84
2023-01-10T19:05:06.176Z,66.25
2023-01-10T19:10:07.604Z,63.76
2023-01-10T19:15:08.818Z,64.39
2023-01-10T19:20:09.986Z,65.01
2023-01-10T19:25:11.376Z,65.11
2023-01-10T19:30:11.875Z,66.05
2023-01-10T19:35:11.342Z,66.46
2023-01-10T19:40:10.536Z,65.94
2023-01-10T19:45:11.691Z,67.00
2023-01-10T19:50:13.855Z,66.80
2023-01-10T19:55:13.272Z,66.90
2023-01-10T20:00:12.554Z,66.59
2023-01-10T20:05:16.054Z,66.69
2023-01-10T20:10:13.212Z,67.00
2023-01-10T20:15:14.438Z,66.69
2023-01-10T20:20:15.729Z,65.66
2023-01-10T20:25:17.147Z,66.38
2023-01-10T20:30:18.396Z,67.39
2023-01-10T20:35:20.562Z,67.95
2023-01-10T20:40:19.782Z,65.82
2023-01-10T20:45:22.896Z,63.04
2023-01-10T20:50:22.119Z,61.50
2023-01-10T20:55:23.481Z,62.59
2023-01-10T21:00:24.707Z,61.51
2023-01-10T21:05:25.897Z,64.43
2023-01-10T21:10:27.076Z,65.54
2023-01-10T21:15:28.171Z,62.85
2023-01-10T21:20:29.415Z,63.68
2023-01-10T21:25:31.587Z,65.44
2023-01-10T21:30:30.736Z,63.03
2023-01-10T21:35:31.948Z,63.96
2023-01-10T21:40:33.028Z,64.21
2023-01-10T21:45:34.228Z,62.97
2023-01-10T21:50:35.310Z,61.45
2023-01-10T21:55:38.410Z,61.55
2023-01-10T22:00:37.694Z,62.07
2023-01-10T22:05:38.882Z,61.87
2023-01-10T22:10:40.986Z,62.41
2023-01-10T22:15:40.166Z,62.82
2023-01-10T22:20:41.300Z,62.72
2023-01-10T22:25:42.497Z,62.41
2023-01-10T22:30:43.682Z,61.97
2023-01-10T22:35:44.857Z,61.76
2023-01-10T22:40:45.989Z,62.69
2023-01-10T22:45:47.237Z,61.79
2023-01-10T22:50:48.389Z,63.03
2023-01-10T22:55:49.582Z,60.42
2023-01-10T23:00:52.687Z,60.73
2023-01-10T23:05:51.826Z,61.42
2023-01-10T23:10:52.977Z,61.14
2023-01-10T23:15:54.086Z,60.73
2023-01-10T23:20:55.193Z,60.65
2023-01-10T23:25:57.398Z,60.93
2023-01-10T23:30:57.477Z,62.72
2023-01-10T23:35:56.924Z,62.10
2023-01-10T23:40:58.989Z,61.97
2023-01-10T23:45:58.127Z,62.82
2023-01-10T23:50:59.289Z,63.93
2023-01-10T23:56:00.442Z,64.27
